createdAt,value
2024-03-23T00:02:01.346Z,18.60
2024-03-23T00:04:31.883Z,16.10
2024-03-23T00:07:02.361Z,17.10
2024-03-23T00:09:32.882Z,18.20
2024-03-23T00:12:03.447Z,18.50
2024-03-23T00:14:33.972Z,17.60
2024-03-23T00:17:04.370Z,16.10
2024-03-23T00:19:34.918Z,18.00
2024-03-23T00:22:05.360Z,16.20
2024-03-23T00:24:35.788Z,16.80
2024-03-23T00:27:06.233Z,17.40
2024-03-23T00:29:36.693Z,20.80
2024-03-23T00:32:07.167Z,21.70
2024-03-23T00:34:37.705Z,18.60
2024-03-23T00:37:08.132Z,20.60
2024-03-23T00:39:38.691Z,19.60
2024-03-23T00:42:09.085Z,23.90
2024-03-23T00:44:39.615Z,21.70
2024-03-23T00:47:10.525Z,16.80
2024-03-23T00:49:40.985Z,17.00
2024-03-23T00:52:11.518Z,18.60
2024-03-23T00:54:41.964Z,16.10
2024-03-23T00:57:12.984Z,22.40
2024-03-23T00:59:43.364Z,18.70
2024-03-23T01:02:13.858Z,20.10
2024-03-23T01:04:44.336Z,19.30
2024-03-23T01:07:14.783Z,25.90
2024-03-23T01:09:45.246Z,16.50
2024-03-23T01:12:15.729Z,20.50
2024-03-23T01:14:46.480Z,23.80
2024-03-23T01:17:17.074Z,20.90
2024-03-23T01:19:47.497Z,19.00
2024-03-23T01:22:18.023Z,22.50
2024-03-23T01:24:48.579Z,19.80
2024-03-23T01:27:19.267Z,21.10
2024-03-23T01:29:49.666Z,18.50
2024-03-23T01:32:20.382Z,21.70
2024-03-23T01:34:50.850Z,21.00
2024-03-23T01:37:21.360Z,21.60
2024-03-23T01:39:52.153Z,20.20
2024-03-23T01:42:22.928Z,21.80
2024-03-23T01:44:53.366Z,23.30
2024-03-23T01:47:24.085Z,27.00
2024-03-23T01:49:54.981Z,22.00
2024-03-23T01:52:25.573Z,23.80
2024-03-23T01:54:56.624Z,21.50
2024-03-23T01:57:27.469Z,21.10
2024-03-23T01:59:57.914Z,28.00
2024-03-23T02:04:58.320Z,23.20
2024-03-23T02:07:29.347Z,21.80
2024-03-23T02:09:59.977Z,23.90
2024-03-23T02:12:30.408Z,21.60
2024-03-23T02:15:01.168Z,21.30
2024-03-23T02:17:34.124Z,25.80
2024-03-23T02:20:07.394Z,19.40
2024-03-23T02:22:41.857Z,24.70
2024-03-23T02:25:12.280Z,27.20
2024-03-23T02:27:42.641Z,23.30
2024-03-23T02:30:13.554Z,20.30
2024-03-23T02:32:44.135Z,27.20
2024-03-23T02:35:15.030Z,22.50
2024-03-23T02:37:45.490Z,24.50
2024-03-23T02:40:16.422Z,24.40
2024-03-23T02:42:47.143Z,21.10
2024-03-23T02:45:18.228Z,22.90
2024-03-23T02:47:52.858Z,23.50
2024-03-23T02:50:23.474Z,24.70
2024-03-23T02:52:53.966Z,24.10
2024-03-23T02:55:24.460Z,26.10
2024-03-23T02:57:54.974Z,23.80
2024-03-23T03:00:25.486Z,24.70
2024-03-23T03:02:56.637Z,24.40
2024-03-23T03:05:27.132Z,23.60
2024-03-23T03:07:57.608Z,25.60
2024-03-23T03:10:28.112Z,24.70
2024-03-23T03:12:58.650Z,23.20
2024-03-23T03:15:29.114Z,23.00
2024-03-23T03:18:00.102Z,19.10
2024-03-23T03:20:30.542Z,18.80
2024-03-23T03:23:00.974Z,24.60
2024-03-23T03:25:31.469Z,24.90
2024-03-23T03:28:02.911Z,24.80
2024-03-23T03:33:02.713Z,21.70
2024-03-23T03:35:33.543Z,25.50
2024-03-23T03:38:03.965Z,22.10
2024-03-23T03:40:34.461Z,26.90
2024-03-23T03:43:05.181Z,22.30
2024-03-23T03:45:35.651Z,23.50
2024-03-23T03:48:06.946Z,23.00
2024-03-23T03:50:37.834Z,21.60
2024-03-23T03:53:08.562Z,20.80
2024-03-23T03:55:39.039Z,23.60
2024-03-23T03:58:09.889Z,24.30
2024-03-23T04:00:40.594Z,20.50
2024-03-23T04:03:11.037Z,17.80
2024-03-23T04:05:41.481Z,21.20
2024-03-23T04:08:11.976Z,20.60
2024-03-23T04:10:42.576Z,21.80
2024-03-23T04:13:13.026Z,17.90
2024-03-23T04:15:43.515Z,18.00
2024-03-23T04:18:14.030Z,19.00
2024-03-23T04:20:44.882Z,23.90
2024-03-23T04:23:15.373Z,21.50
2024-03-23T04:25:46.166Z,22.10
2024-03-23T04:28:17.115Z,23.50
2024-03-23T04:30:47.673Z,19.20
2024-03-23T04:33:18.162Z,20.40
2024-03-23T04:35:52.360Z,23.10
2024-03-23T04:38:22.821Z,21.30
2024-03-23T04:40:59.005Z,19.40
2024-03-23T04:43:30.088Z,18.30
2024-03-23T04:46:00.562Z,20.00
2024-03-23T04:48:31.095Z,20.20
2024-03-23T04:51:01.668Z,22.00
2024-03-23T04:53:32.094Z,21.80
2024-03-23T04:56:03.234Z,22.40
2024-03-23T04:58:33.700Z,21.60
2024-03-23T05:01:04.239Z,18.00
2024-03-23T05:03:34.724Z,22.00
2024-03-23T05:06:06.375Z,18.30
2024-03-23T05:08:36.807Z,21.20
2024-03-23T05:11:07.914Z,23.00
2024-03-23T05:13:38.643Z,21.80
2024-03-23T05:16:09.773Z,21.90
2024-03-23T05:18:40.298Z,28.10
2024-03-23T05:21:10.876Z,21.20
2024-03-23T05:23:41.632Z,26.70
2024-03-23T05:26:12.179Z,18.20
2024-03-23T05:28:42.974Z,16.30
2024-03-23T05:31:13.437Z,28.40
2024-03-23T05:33:43.944Z,29.60
2024-03-23T05:36:14.510Z,26.30
2024-03-23T05:38:45.090Z,21.80
2024-03-23T05:41:15.998Z,25.70
2024-03-23T05:43:47.008Z,22.50
2024-03-23T05:46:19.067Z,27.90
2024-03-23T05:48:49.672Z,24.60
2024-03-23T05:51:20.236Z,27.20
2024-03-23T05:53:51.780Z,22.40
2024-03-23T05:56:23.228Z,25.40
2024-03-23T06:01:23.291Z,25.20
2024-03-23T06:03:53.774Z,26.20
2024-03-23T06:06:25.031Z,25.50
2024-03-23T06:08:55.447Z,26.40
2024-03-23T06:11:28.225Z,26.40
2024-03-23T06:13:59.104Z,30.10
2024-03-23T06:16:29.725Z,26.70
2024-03-23T06:19:00.341Z,27.30
2024-03-23T06:21:30.867Z,28.50
2024-03-23T06:24:01.590Z,27.90
2024-03-23T06:26:32.000Z,26.50
2024-03-23T06:29:02.729Z,26.30
2024-03-23T06:31:33.206Z,27.50
2024-03-23T06:34:03.704Z,24.40
2024-03-23T06:36:34.191Z,27.70
2024-03-23T06:39:04.816Z,31.70
2024-03-23T06:41:36.484Z,26.40
2024-03-23T06:44:07.119Z,30.10
2024-03-23T06:46:37.650Z,27.30
2024-03-23T06:49:08.164Z,27.40
2024-03-23T06:51:39.177Z,30.30
2024-03-23T06:54:10.170Z,29.40
2024-03-23T06:56:40.870Z,28.50
2024-03-23T06:59:11.372Z,26.60
2024-03-23T07:01:41.803Z,21.80
2024-03-23T07:04:12.385Z,32.10
2024-03-23T07:06:47.463Z,29.00
2024-03-23T07:09:17.911Z,24.40
2024-03-23T07:11:48.362Z,22.30
2024-03-23T07:14:19.138Z,29.50
2024-03-23T07:16:52.891Z,23.30
2024-03-23T07:19:25.716Z,23.20
2024-03-23T07:21:56.406Z,26.70
2024-03-23T07:24:27.012Z,25.20
2024-03-23T07:26:59.064Z,27.40
2024-03-23T07:29:29.613Z,20.00
2024-03-23T07:32:00.172Z,21.40
2024-03-23T07:34:30.675Z,22.90
2024-03-23T07:37:01.089Z,21.70
2024-03-23T07:39:33.894Z,20.30
2024-03-23T07:42:04.518Z,20.00
2024-03-23T07:44:35.034Z,18.70
2024-03-23T07:47:05.679Z,18.80
2024-03-23T07:49:36.639Z,22.60
2024-03-23T07:52:09.321Z,22.90
2024-03-23T07:54:39.856Z,22.30
2024-03-23T07:57:10.463Z,21.10
2024-03-23T07:59:40.965Z,23.00
2024-03-23T08:02:11.957Z,23.20
2024-03-23T08:04:42.433Z,22.10
2024-03-23T08:07:12.901Z,19.10
2024-03-23T08:09:43.398Z,19.70
2024-03-23T08:12:13.893Z,19.90
2024-03-23T08:14:45.331Z,22.30
2024-03-23T08:19:44.765Z,14.00
2024-03-23T08:22:15.310Z,18.00
2024-03-23T08:24:45.747Z,15.70
2024-03-23T08:27:16.243Z,19.80
2024-03-23T08:29:48.939Z,21.40
2024-03-23T08:32:19.499Z,19.30
2024-03-23T08:34:49.928Z,17.50
2024-03-23T08:37:20.447Z,18.60
2024-03-23T08:39:53.062Z,19.40
2024-03-23T08:42:26.230Z,20.10
2024-03-23T08:44:57.913Z,18.60
2024-03-23T08:47:28.431Z,17.50
2024-03-23T08:49:59.755Z,26.20
2024-03-23T08:52:30.940Z,19.60
2024-03-23T08:55:04.573Z,18.50
2024-03-23T08:57:37.619Z,25.10
2024-03-23T09:00:10.042Z,17.00
2024-03-23T09:02:40.506Z,18.40
2024-03-23T09:05:13.156Z,19.30
2024-03-23T09:07:44.174Z,15.80
2024-03-23T09:10:15.218Z,14.40
2024-03-23T09:12:46.929Z,15.70
2024-03-23T09:15:17.824Z,20.90
2024-03-23T09:20:18.016Z,17.40
2024-03-23T09:22:50.010Z,17.30
2024-03-23T09:25:20.607Z,16.90
2024-03-23T09:27:52.085Z,15.30
2024-03-23T09:30:22.811Z,16.90
2024-03-23T09:32:56.290Z,12.70
2024-03-23T09:35:26.806Z,18.80
2024-03-23T09:37:58.233Z,14.70
2024-03-23T09:40:28.746Z,19.40
2024-03-23T09:42:59.936Z,14.60
2024-03-23T09:45:32.399Z,14.00
2024-03-23T09:48:03.889Z,13.70
2024-03-23T09:50:34.375Z,12.40
2024-03-23T09:53:08.628Z,14.30
2024-03-23T09:55:40.304Z,13.30
2024-03-23T09:58:14.651Z,15.10
2024-03-23T10:00:46.245Z,11.10
2024-03-23T10:03:17.043Z,14.40
2024-03-23T10:05:48.707Z,12.50
2024-03-23T10:08:22.715Z,10.40
2024-03-23T10:10:53.176Z,14.50
2024-03-23T10:13:31.172Z,14.00
2024-03-23T10:16:02.336Z,14.10
2024-03-23T10:21:13.078Z,12.60
2024-03-23T10:23:45.258Z,12.00
2024-03-23T10:26:23.579Z,11.80
2024-03-23T10:29:01.881Z,11.60
2024-03-23T10:31:33.510Z,11.60
2024-03-23T10:34:04.940Z,11.00
2024-03-23T10:36:36.350Z,12.20
2024-03-23T10:39:09.502Z,10.90
2024-03-23T10:41:42.091Z,13.00
2024-03-23T10:44:13.093Z,11.60
2024-03-23T10:46:43.725Z,11.90
2024-03-23T10:49:14.180Z,10.80
2024-03-23T10:51:44.756Z,11.50
2024-03-23T10:54:15.566Z,10.80
2024-03-23T10:56:47.284Z,9.60
2024-03-23T10:59:18.877Z,9.00
2024-03-23T11:02:04.200Z,9.10
2024-03-23T11:04:36.996Z,10.20
2024-03-23T11:07:34.191Z,10.10
2024-03-23T11:10:25.487Z,8.40
2024-03-23T11:12:56.303Z,17.60
2024-03-23T11:15:27.034Z,9.30
2024-03-23T11:18:22.057Z,11.80
2024-03-23T11:23:32.777Z,10.60
2024-03-23T11:26:05.209Z,7.40
2024-03-23T11:28:35.871Z,8.50
2024-03-23T11:31:13.372Z,9.80
2024-03-23T11:33:44.133Z,10.30
2024-03-23T11:36:22.353Z,9.20
2024-03-23T11:38:52.959Z,10.30
2024-03-23T11:41:23.795Z,11.40
2024-03-23T11:43:55.750Z,6.80
2024-03-23T11:46:30.201Z,9.70
2024-03-23T11:49:01.136Z,10.20
2024-03-23T11:51:35.895Z,9.50
2024-03-23T11:54:12.650Z,8.80
2024-03-23T11:56:44.018Z,6.70
2024-03-23T11:59:32.033Z,7.20
2024-03-23T12:02:08.558Z,7.40
2024-03-23T12:04:41.032Z,7.50
2024-03-23T12:07:21.672Z,9.30
2024-03-23T12:10:08.282Z,10.90
2024-03-23T12:12:39.155Z,8.90
2024-03-23T12:15:13.751Z,7.70
2024-03-23T12:17:44.339Z,6.20
2024-03-23T12:20:15.051Z,5.50
2024-03-23T12:22:47.408Z,6.20
2024-03-23T12:25:19.041Z,6.90
2024-03-23T12:27:49.939Z,8.10
2024-03-23T12:30:20.784Z,6.20
2024-03-23T12:32:51.459Z,7.00
2024-03-23T12:35:23.657Z,11.30
2024-03-23T12:37:54.471Z,9.90
2024-03-23T12:40:27.921Z,7.30
2024-03-23T12:42:59.117Z,7.40
2024-03-23T12:45:29.901Z,9.00
2024-03-23T12:48:01.004Z,9.30
2024-03-23T12:53:01.809Z,9.30
2024-03-23T12:55:34.263Z,9.80
2024-03-23T12:58:08.674Z,8.30
2024-03-23T13:00:39.878Z,8.90
2024-03-23T13:03:16.683Z,9.80
2024-03-23T13:05:55.198Z,10.20
2024-03-23T13:08:55.841Z,9.30
2024-03-23T13:11:26.864Z,8.30
2024-03-23T13:13:57.337Z,9.00
2024-03-23T13:16:29.304Z,7.40
2024-03-23T13:19:02.401Z,10.20
2024-03-23T13:21:32.962Z,7.60
2024-03-23T13:24:07.117Z,7.80
2024-03-23T13:26:47.305Z,8.50
2024-03-23T13:29:18.077Z,7.40
2024-03-23T13:31:49.321Z,7.30
2024-03-23T13:34:20.881Z,10.60
2024-03-23T13:39:21.575Z,8.40
2024-03-23T13:41:58.992Z,11.20
2024-03-23T13:44:29.900Z,9.50
2024-03-23T13:47:05.145Z,11.70
2024-03-23T13:49:35.778Z,9.40
2024-03-23T13:52:08.249Z,10.20
2024-03-23T13:54:38.797Z,9.50
2024-03-23T13:57:11.754Z,9.90
2024-03-23T13:59:42.244Z,7.40
2024-03-23T14:02:15.706Z,10.10
2024-03-23T14:04:46.212Z,8.30
2024-03-23T14:07:18.248Z,9.30
2024-03-23T14:09:48.795Z,9.70
2024-03-23T14:12:19.907Z,8.50
2024-03-23T14:14:50.339Z,9.90
2024-03-23T14:17:20.834Z,11.10
2024-03-23T14:19:57.352Z,9.10
2024-03-23T14:22:31.187Z,9.90
2024-03-23T14:25:01.747Z,13.50
2024-03-23T14:27:33.297Z,8.20
2024-03-23T14:30:05.020Z,9.20
2024-03-23T14:32:37.069Z,7.50
2024-03-23T14:35:11.190Z,9.10
2024-03-23T14:37:44.434Z,14.10
2024-03-23T14:40:15.513Z,8.70
2024-03-23T14:42:45.959Z,8.60
2024-03-23T14:45:16.866Z,9.10
2024-03-23T14:47:47.312Z,10.50
2024-03-23T14:50:18.099Z,8.60
2024-03-23T14:52:49.518Z,9.20
2024-03-23T14:55:20.569Z,9.50
2024-03-23T14:57:52.765Z,7.70
2024-03-23T15:00:23.526Z,7.60
2024-03-23T15:02:54.492Z,10.20
2024-03-23T15:05:33.127Z,9.70
2024-03-23T15:08:04.377Z,12.70
2024-03-23T15:13:05.597Z,12.30
2024-03-23T15:15:44.908Z,11.00
2024-03-23T15:18:17.143Z,11.60
2024-03-23T15:20:56.294Z,15.10
2024-03-23T15:23:27.677Z,12.30
2024-03-23T15:26:03.115Z,11.80
2024-03-23T15:28:42.555Z,12.40
2024-03-23T15:31:13.107Z,11.40
2024-03-23T15:33:49.523Z,15.70
2024-03-23T15:36:20.093Z,12.80
2024-03-23T15:38:51.088Z,9.60
2024-03-23T15:41:24.371Z,12.80
2024-03-23T15:43:55.622Z,9.50
2024-03-23T15:46:26.529Z,9.20
2024-03-23T15:48:57.027Z,9.60
2024-03-23T15:51:32.545Z,10.80
2024-03-23T15:54:04.138Z,11.80
2024-03-23T15:56:35.303Z,11.50
2024-03-23T15:59:08.966Z,9.50
2024-03-23T16:01:39.800Z,15.20
2024-03-23T16:04:10.377Z,11.20
2024-03-23T16:06:42.863Z,11.70
2024-03-23T16:09:13.481Z,8.80
2024-03-23T16:11:44.178Z,9.20
2024-03-23T16:14:15.471Z,10.10
2024-03-23T16:16:46.993Z,9.80
2024-03-23T16:19:18.415Z,9.60
2024-03-23T16:21:49.135Z,10.10
2024-03-23T16:24:19.755Z,10.60
2024-03-23T16:26:50.554Z,9.60
2024-03-23T16:29:21.424Z,10.40
2024-03-23T16:31:54.935Z,12.90
2024-03-23T16:34:25.535Z,11.50
2024-03-23T16:36:57.861Z,12.90
2024-03-23T16:39:30.013Z,21.60
2024-03-23T16:42:00.800Z,17.20
2024-03-23T16:44:35.342Z,11.40
2024-03-23T16:47:06.123Z,11.10
2024-03-23T16:49:36.614Z,8.50
2024-03-23T16:52:07.613Z,11.90
2024-03-23T16:54:38.196Z,8.90
2024-03-23T16:57:09.034Z,8.90
2024-03-23T16:59:39.576Z,11.10
2024-03-23T17:02:10.736Z,9.90
2024-03-23T17:04:41.644Z,9.50
2024-03-23T17:07:14.232Z,10.20
2024-03-23T17:09:50.895Z,7.50
2024-03-23T17:12:22.208Z,11.70
2024-03-23T17:14:55.477Z,9.80
2024-03-23T17:17:29.091Z,10.00
2024-03-23T17:20:04.714Z,9.60
2024-03-23T17:22:35.358Z,8.60
2024-03-23T17:25:08.960Z,8.60
2024-03-23T17:27:39.804Z,10.50
2024-03-23T17:30:12.868Z,10.00
2024-03-23T17:32:43.831Z,10.20
2024-03-23T17:35:15.822Z,10.60
2024-03-23T17:37:46.628Z,10.40
2024-03-23T17:40:17.143Z,8.90
2024-03-23T17:42:48.497Z,13.00
2024-03-23T17:45:20.849Z,11.80
2024-03-23T17:47:52.153Z,8.90
2024-03-23T17:50:22.907Z,11.00
2024-03-23T17:52:53.623Z,11.40
2024-03-23T17:55:24.609Z,9.90
2024-03-23T17:57:57.594Z,10.60
2024-03-23T18:00:28.810Z,10.20
2024-03-23T18:02:59.277Z,13.10
2024-03-23T18:05:29.910Z,10.60
2024-03-23T18:08:00.643Z,9.60
2024-03-23T18:10:31.303Z,8.30
2024-03-23T18:13:01.742Z,13.00
2024-03-23T18:15:50.004Z,8.50
2024-03-23T18:18:25.845Z,12.20
2024-03-23T18:20:56.949Z,8.80
2024-03-23T18:23:28.890Z,6.20
2024-03-23T18:26:00.121Z,8.10
2024-03-23T18:28:30.723Z,9.60
2024-03-23T18:31:01.851Z,9.50
2024-03-23T18:34:01.820Z,8.20
2024-03-23T18:36:35.664Z,9.90
2024-03-23T18:39:08.191Z,7.20
2024-03-23T18:41:38.836Z,4.60
2024-03-23T18:44:13.839Z,3.50
2024-03-23T18:46:47.426Z,2.50
2024-03-23T18:49:19.756Z,3.10
2024-03-23T18:51:50.417Z,3.00
2024-03-23T18:54:21.090Z,2.80
2024-03-23T18:56:52.165Z,4.10
2024-03-23T18:59:22.711Z,2.30
2024-03-23T19:01:54.211Z,2.60
2024-03-23T19:06:53.795Z,2.70
2024-03-23T19:09:26.503Z,2.40
2024-03-23T19:11:57.607Z,1.50
2024-03-23T19:14:31.387Z,1.80
2024-03-23T19:17:03.104Z,3.00
2024-03-23T19:19:35.263Z,1.20
2024-03-23T19:22:06.099Z,1.30
2024-03-23T19:24:36.696Z,0.50
2024-03-23T19:27:07.459Z,0.60
2024-03-23T19:29:37.992Z,0.90
2024-03-23T19:32:08.968Z,2.10
2024-03-23T19:34:39.810Z,1.30
2024-03-23T19:37:10.352Z,1.60
2024-03-23T19:39:41.913Z,2.30
2024-03-23T19:42:12.940Z,1.30
2024-03-23T19:44:43.406Z,2.00
2024-03-23T19:47:14.141Z,2.30
2024-03-23T19:49:45.045Z,1.10
2024-03-23T19:52:15.637Z,1.10
2024-03-23T19:54:46.316Z,1.70
2024-03-23T19:57:16.963Z,2.40
2024-03-23T19:59:47.432Z,2.20
2024-03-23T20:02:17.999Z,3.30
2024-03-23T20:04:48.512Z,2.00
2024-03-23T20:07:19.323Z,1.30
2024-03-23T20:09:50.120Z,2.30
2024-03-23T20:12:20.660Z,1.70
2024-03-23T20:14:51.315Z,1.20
2024-03-23T20:17:24.110Z,1.40
2024-03-23T20:19:54.611Z,1.00
2024-03-23T20:22:26.083Z,1.60
2024-03-23T20:24:58.010Z,1.70
2024-03-23T20:27:28.897Z,1.40
2024-03-23T20:29:59.501Z,2.70
2024-03-23T20:32:30.136Z,1.80
2024-03-23T20:35:02.437Z,2.80
2024-03-23T20:37:32.993Z,3.20
2024-03-23T20:40:04.069Z,2.10
2024-03-23T20:42:34.549Z,2.20
2024-03-23T20:45:05.883Z,3.80
2024-03-23T20:47:39.802Z,3.50
2024-03-23T20:50:13.894Z,2.80
2024-03-23T20:52:47.097Z,2.70
2024-03-23T20:55:17.677Z,4.60
2024-03-23T20:57:48.742Z,4.70
2024-03-23T21:00:23.087Z,2.30
2024-03-23T21:02:53.685Z,4.20
2024-03-23T21:05:24.222Z,2.80
2024-03-23T21:07:54.736Z,2.00
2024-03-23T21:10:27.670Z,2.00
2024-03-23T21:12:58.723Z,2.50
2024-03-23T21:15:29.805Z,2.30
2024-03-23T21:18:00.859Z,3.20
2024-03-23T21:20:31.406Z,4.00
2024-03-23T21:23:03.010Z,2.90
2024-03-23T21:28:02.717Z,1.70
2024-03-23T21:30:38.462Z,1.90
2024-03-23T21:33:09.939Z,3.70
2024-03-23T21:35:43.143Z,2.30
2024-03-23T21:38:13.653Z,2.50
2024-03-23T21:40:44.282Z,3.40
2024-03-23T21:43:14.895Z,2.00
2024-03-23T21:45:54.111Z,2.10
2024-03-23T21:48:24.758Z,4.60
2024-03-23T21:50:55.366Z,3.10
2024-03-23T21:53:25.870Z,7.10
2024-03-23T21:55:57.316Z,4.60
2024-03-23T21:58:28.796Z,2.40
2024-03-23T22:01:05.313Z,2.40
2024-03-23T22:03:35.993Z,5.90
2024-03-23T22:06:10.802Z,5.30
2024-03-23T22:08:41.285Z,3.80
2024-03-23T22:11:11.849Z,5.10
2024-03-23T22:13:43.698Z,4.20
2024-03-23T22:16:14.840Z,6.10
2024-03-23T22:18:45.454Z,2.90
2024-03-23T22:21:16.788Z,3.80
2024-03-23T22:23:50.471Z,3.90
2024-03-23T22:26:21.210Z,5.20
2024-03-23T22:28:51.868Z,6.10
2024-03-23T22:31:22.458Z,4.90
2024-03-23T22:33:53.107Z,2.90
2024-03-23T22:36:23.601Z,5.40
2024-03-23T22:38:54.198Z,3.80
2024-03-23T22:41:24.790Z,5.80
2024-03-23T22:43:55.343Z,4.30
2024-03-23T22:46:26.199Z,5.60
2024-03-23T22:48:57.245Z,3.80
2024-03-23T22:51:28.041Z,4.70
2024-03-23T22:54:01.039Z,5.80
2024-03-23T22:56:31.569Z,4.70
2024-03-23T22:59:02.042Z,3.40
2024-03-23T23:01:32.882Z,4.10
2024-03-23T23:04:03.560Z,6.00
2024-03-23T23:06:36.008Z,5.20
2024-03-23T23:09:07.735Z,4.00
2024-03-23T23:11:38.266Z,6.40
2024-03-23T23:14:09.420Z,3.90
2024-03-23T23:16:40.041Z,7.30
2024-03-23T23:19:12.325Z,5.00
2024-03-23T23:21:43.068Z,5.70
2024-03-23T23:24:13.777Z,6.60
2024-03-23T23:26:44.354Z,4.50
2024-03-23T23:29:15.009Z,7.10
2024-03-23T23:31:48.471Z,9.50
2024-03-23T23:34:19.447Z,6.20
2024-03-23T23:36:51.195Z,4.80
2024-03-23T23:39:21.846Z,7.10
2024-03-23T23:41:52.569Z,4.80
2024-03-23T23:44:23.730Z,4.50
2024-03-23T23:46:54.395Z,4.40
2024-03-23T23:49:25.137Z,6.20
2024-03-23T23:51:55.824Z,4.30
2024-03-23T23:54:27.211Z,6.10
2024-03-23T23:56:58.389Z,9.20
2024-03-23T23:59:29.229Z,7.20
